Time;durP1;ratioP1;P1;durP2;ratioP2;P2;SDS_P1;SDS_P2;PMS_P1;PMS_P2;Temp;Humidity;BMP_temperature;BMP_pressure;BME280_temperature;BME280_humidity;BME280_pressure;Samples;Min_cycle;Max_cycle;Signal;HPM_P1;HPM_P2
2021/08/09 00:01:21;;;;;;;8.20;7.57;;;13.30;99.90;;;;;;4899119;29;20699;-76
2021/08/09 00:03:47;;;;;;;7.73;7.13;;;13.30;99.90;;;;;;4900021;29;20221;-76
2021/08/09 00:06:17;;;;;;;8.83;8.03;;;13.20;99.90;;;;;;4899033;29;20226;-76
2021/08/09 00:08:43;;;;;;;8.13;7.60;;;13.20;99.90;;;;;;4897357;29;20268;-76
2021/08/09 00:11:10;;;;;;;7.80;7.30;;;13.20;99.90;;;;;;4896629;29;20229;-76
2021/08/09 00:13:37;;;;;;;7.50;6.90;;;13.10;99.90;;;;;;4897541;29;20254;-76
2021/08/09 00:16:04;;;;;;;9.17;8.27;;;13.10;99.90;;;;;;4896332;29;20289;-76
2021/08/09 00:18:31;;;;;;;8.43;7.70;;;13.10;99.90;;;;;;4898830;29;20630;-76
2021/08/09 00:20:58;;;;;;;8.40;7.70;;;13.10;99.90;;;;;;4897538;29;20225;-76
2021/08/09 00:23:26;;;;;;;8.27;7.63;;;13.10;99.90;;;;;;4899273;29;20375;-76
2021/08/09 00:25:53;;;;;;;8.10;7.60;;;13.10;99.90;;;;;;4900165;29;20202;-76
2021/08/09 00:28:20;;;;;;;8.37;7.77;;;13.10;99.90;;;;;;4897940;29;20225;-76
2021/08/09 00:30:46;;;;;;;8.67;7.97;;;13.00;99.90;;;;;;4896016;29;20254;-76
2021/08/09 00:33:13;;;;;;;8.53;7.83;;;13.00;99.90;;;;;;4896191;29;20201;-76
2021/08/09 00:35:40;;;;;;;8.20;7.60;;;13.00;99.90;;;;;;4896141;29;20270;-76
2021/08/09 00:38:07;;;;;;;7.97;7.47;;;13.00;99.90;;;;;;4896072;29;20316;-76
2021/08/09 00:40:36;;;;;;;8.73;8.03;;;13.00;99.90;;;;;;4896154;29;20202;-76
2021/08/09 00:43:04;;;;;;;8.23;7.63;;;12.90;99.90;;;;;;4895888;29;20215;-76
2021/08/09 00:45:31;;;;;;;8.57;7.87;;;12.90;99.90;;;;;;4895946;29;20625;-76
2021/08/09 00:47:58;;;;;;;8.87;8.07;;;12.90;99.90;;;;;;4890666;29;20233;-75
2021/08/09 00:50:25;;;;;;;8.23;7.73;;;12.80;99.90;;;;;;4896097;29;20286;-76
2021/08/09 00:52:53;;;;;;;8.47;7.87;;;12.90;99.90;;;;;;4890302;29;20229;-76
2021/08/09 00:55:21;;;;;;;8.47;7.77;;;12.80;99.90;;;;;;4895622;29;20268;-76
2021/08/09 00:57:49;;;;;;;8.00;7.40;;;12.80;99.90;;;;;;4893516;29;20235;-76
2021/08/09 01:00:19;;;;;;;7.90;7.30;;;12.80;99.90;;;;;;4890936;29;20610;-76
2021/08/09 01:02:46;;;;;;;8.10;7.30;;;12.80;99.90;;;;;;4896877;29;20222;-76
2021/08/09 01:05:14;;;;;;;8.20;7.60;;;12.80;99.90;;;;;;4893283;29;20583;-76
2021/08/09 01:07:55;;;;;;;8.10;7.50;;;12.80;99.90;;;;;;4893453;29;20213;-76
2021/08/09 01:10:30;;;;;;;8.30;7.70;;;12.90;99.90;;;;;;4895075;29;20212;-76
2021/08/09 01:13:06;;;;;;;7.83;7.33;;;12.80;99.90;;;;;;4893247;29;20672;-75
2021/08/09 01:15:38;;;;;;;8.00;7.50;;;12.80;99.90;;;;;;4895489;29;20201;-77
2021/08/09 01:18:07;;;;;;;8.17;7.57;;;12.80;99.90;;;;;;4894865;29;20655;-76
2021/08/09 01:20:47;;;;;;;8.10;7.50;;;12.80;99.90;;;;;;4887717;29;20209;-76
2021/08/09 01:23:36;;;;;;;7.87;7.37;;;12.80;99.90;;;;;;4890531;29;20233;-76
2021/08/09 01:26:11;;;;;;;7.97;7.37;;;12.80;99.90;;;;;;4884676;29;20267;-76
2021/08/09 01:28:41;;;;;;;8.03;7.43;;;12.80;99.90;;;;;;4885122;29;20231;-76
2021/08/09 01:31:08;;;;;;;7.73;7.20;;;12.80;99.90;;;;;;4893435;29;20204;-76
2021/08/09 01:33:39;;;;;;;8.00;7.40;;;12.80;99.90;;;;;;4894771;29;20282;-76
2021/08/09 01:36:08;;;;;;;8.17;7.67;;;12.80;99.90;;;;;;4884349;29;20263;-76
2021/08/09 01:38:38;;;;;;;7.70;7.20;;;12.80;99.90;;;;;;4892573;29;20282;-76
2021/08/09 01:41:07;;;;;;;7.70;7.10;;;12.80;99.90;;;;;;4895181;29;20298;-76
2021/08/09 01:43:36;;;;;;;7.20;6.70;;;12.80;99.90;;;;;;4883155;29;20218;-76
2021/08/09 01:46:05;;;;;;;7.57;6.97;;;12.70;99.90;;;;;;4889204;29;20216;-76
2021/08/09 01:48:32;;;;;;;7.63;7.10;;;12.70;99.90;;;;;;4913207;23;20234;-75
2021/08/09 01:51:01;;;;;;;7.70;7.03;;;12.70;99.90;;;;;;4881711;29;20199;-75
2021/08/09 01:53:30;;;;;;;7.63;7.13;;;12.70;99.90;;;;;;4872118;29;20201;-75
2021/08/09 01:55:57;;;;;;;7.50;7.00;;;12.70;99.90;;;;;;4869232;29;20215;-75
2021/08/09 01:58:26;;;;;;;7.30;6.80;;;12.80;99.90;;;;;;4868665;29;20218;-75
2021/08/09 02:00:54;;;;;;;7.10;6.70;;;12.80;99.90;;;;;;4866528;29;20234;-75
2021/08/09 02:03:22;;;;;;;7.33;6.83;;;12.80;99.90;;;;;;4871294;29;20221;-75
2021/08/09 02:05:49;;;;;;;7.20;6.80;;;12.80;99.90;;;;;;4866977;29;20207;-75
2021/08/09 02:08:17;;;;;;;7.97;7.47;;;12.70;99.90;;;;;;4888358;29;20233;-75
2021/08/09 02:10:48;;;;;;;7.43;6.93;;;12.70;99.90;;;;;;4867401;29;20206;-75
2021/08/09 02:13:22;;;;;;;7.00;6.60;;;12.70;99.90;;;;;;4873284;29;20198;-76
2021/08/09 02:15:57;;;;;;;8.10;7.60;;;12.70;99.90;;;;;;4866687;29;20210;-75
2021/08/09 02:18:30;;;;;;;7.77;7.27;;;12.70;99.90;;;;;;4887387;29;20237;-75
2021/08/09 02:21:02;;;;;;;8.20;7.60;;;12.70;99.90;;;;;;4866076;29;20199;-75
2021/08/09 02:23:37;;;;;;;7.70;7.10;;;12.70;99.90;;;;;;4889410;29;20241;-75
2021/08/09 02:26:05;;;;;;;8.00;7.47;;;12.70;99.90;;;;;;4874519;29;20198;-75
2021/08/09 02:28:34;;;;;;;8.03;7.53;;;12.70;99.90;;;;;;4887488;29;20259;-75
2021/08/09 02:31:06;;;;;;;7.90;7.30;;;12.70;99.90;;;;;;4865485;29;20211;-75
2021/08/09 02:33:36;;;;;;;7.67;7.17;;;12.60;99.90;;;;;;4889421;29;20259;-75
2021/08/09 02:36:05;;;;;;;7.87;7.37;;;12.60;99.90;;;;;;4886037;29;20208;-75
2021/08/09 02:38:34;;;;;;;7.70;7.20;;;12.60;99.90;;;;;;4869767;29;20227;-77
2021/08/09 02:41:01;;;;;;;7.57;7.07;;;12.50;99.90;;;;;;4880623;29;20203;-80
2021/08/09 02:43:29;;;;;;;7.47;6.97;;;12.50;99.90;;;;;;4868669;29;20604;-79
2021/08/09 02:45:57;;;;;;;7.50;7.10;;;12.40;99.90;;;;;;4868184;29;20201;-80
2021/08/09 02:48:26;;;;;;;8.30;7.70;;;12.40;99.90;;;;;;4891116;29;20250;-80
2021/08/09 02:50:55;;;;;;;8.50;7.90;;;12.40;99.90;;;;;;4879278;29;20676;-81
2021/08/09 02:53:23;;;;;;;7.30;6.90;;;12.40;99.90;;;;;;4880458;29;20193;-79
2021/08/09 02:55:54;;;;;;;7.70;7.20;;;12.30;99.90;;;;;;4885815;29;20202;-82
2021/08/09 02:58:22;;;;;;;7.33;6.93;;;12.30;99.90;;;;;;4879520;29;20226;-80
2021/08/09 03:00:49;;;;;;;8.70;8.20;;;12.20;99.90;;;;;;4876441;29;20254;-79
2021/08/09 03:03:21;;;;;;;8.53;8.03;;;12.20;99.90;;;;;;4888394;29;20231;-77
2021/08/09 03:05:50;;;;;;;7.90;7.40;;;12.20;99.90;;;;;;4869410;29;20222;-77
2021/08/09 03:08:18;;;;;;;8.07;7.40;;;12.20;99.90;;;;;;4869111;29;20231;-77
2021/08/09 03:10:45;;;;;;;8.13;7.53;;;12.20;99.90;;;;;;4869062;29;20648;-77
2021/08/09 03:13:12;;;;;;;8.07;7.50;;;12.10;99.90;;;;;;4885768;29;20200;-77
2021/08/09 03:15:42;;;;;;;9.23;8.53;;;12.10;99.90;;;;;;4872498;29;20207;-81
2021/08/09 03:18:10;;;;;;;8.00;7.50;;;12.10;99.90;;;;;;4870672;29;20675;-78
2021/08/09 03:20:37;;;;;;;8.47;7.77;;;12.00;99.90;;;;;;4893257;29;20205;-79
2021/08/09 03:23:04;;;;;;;8.13;7.63;;;11.90;99.90;;;;;;4880548;29;20224;-77
2021/08/09 03:25:32;;;;;;;8.30;7.70;;;11.90;99.90;;;;;;4868637;29;20199;-75
2021/08/09 03:27:59;;;;;;;8.27;7.37;;;11.90;99.90;;;;;;4891106;29;20236;-75
2021/08/09 03:30:27;;;;;;;9.63;9.03;;;11.80;99.90;;;;;;4878293;29;20208;-75
2021/08/09 03:32:54;;;;;;;8.07;7.47;;;11.80;99.90;;;;;;4866702;29;20289;-75
2021/08/09 03:35:22;;;;;;;8.27;7.57;;;11.80;99.90;;;;;;4885908;29;20702;-75
2021/08/09 03:37:50;;;;;;;8.47;7.87;;;11.80;99.90;;;;;;4893459;29;20671;-75
2021/08/09 03:40:17;;;;;;;8.30;7.70;;;11.80;99.90;;;;;;4870708;29;20222;-75
2021/08/09 03:42:45;;;;;;;8.47;7.80;;;11.80;99.90;;;;;;4869519;29;20350;-75
2021/08/09 03:45:12;;;;;;;8.77;8.07;;;11.80;99.90;;;;;;4870684;29;20197;-74
2021/08/09 03:47:39;;;;;;;8.10;7.60;;;11.80;99.90;;;;;;4869795;29;20209;-75
2021/08/09 03:50:06;;;;;;;8.10;7.60;;;11.80;99.90;;;;;;4869446;29;20229;-75
2021/08/09 03:52:33;;;;;;;8.53;7.97;;;11.80;99.90;;;;;;4869922;29;20205;-75
2021/08/09 03:55:00;;;;;;;8.70;8.10;;;11.80;99.90;;;;;;4877610;29;20200;-75
2021/08/09 03:57:28;;;;;;;8.37;7.70;;;11.70;99.90;;;;;;4870610;29;20211;-75
2021/08/09 03:59:56;;;;;;;8.83;8.30;;;11.80;99.90;;;;;;4875109;29;20221;-74
2021/08/09 04:02:29;;;;;;;9.37;8.77;;;11.80;99.90;;;;;;4867142;29;20285;-74
2021/08/09 04:04:58;;;;;;;10.20;9.37;;;11.70;99.90;;;;;;4868446;29;20545;-75
2021/08/09 04:07:27;;;;;;;10.50;9.70;;;11.80;99.90;;;;;;4870010;29;20202;-75
2021/08/09 04:09:54;;;;;;;9.83;9.07;;;11.80;99.90;;;;;;4868563;29;20639;-75
2021/08/09 04:12:21;;;;;;;9.70;9.00;;;11.80;99.90;;;;;;4869852;29;20209;-75
2021/08/09 04:14:48;;;;;;;9.40;8.70;;;11.80;99.90;;;;;;4869735;29;20285;-75
2021/08/09 04:17:16;;;;;;;9.43;8.63;;;11.80;99.90;;;;;;4884897;29;20205;-75
2021/08/09 04:19:43;;;;;;;9.20;8.50;;;11.80;99.90;;;;;;4859656;29;20626;-75
2021/08/09 04:22:11;;;;;;;9.47;8.87;;;11.90;99.90;;;;;;4859347;29;20202;-75
2021/08/09 04:24:38;;;;;;;9.60;8.87;;;11.90;99.90;;;;;;4868947;29;20691;-75
2021/08/09 04:27:05;;;;;;;9.50;8.80;;;11.90;99.90;;;;;;4867418;29;20228;-75
2021/08/09 04:29:33;;;;;;;9.93;9.23;;;11.90;99.90;;;;;;4885279;29;20333;-75
2021/08/09 04:32:00;;;;;;;9.50;8.90;;;11.90;99.90;;;;;;4866815;29;20197;-75
2021/08/09 04:34:28;;;;;;;9.63;9.03;;;11.90;99.90;;;;;;4889389;29;20671;-75
2021/08/09 04:36:55;;;;;;;9.93;9.23;;;11.90;99.90;;;;;;4874362;29;20636;-75
2021/08/09 04:39:22;;;;;;;9.67;9.07;;;12.00;99.90;;;;;;4865461;29;20315;-75
2021/08/09 04:41:49;;;;;;;9.27;8.57;;;12.00;99.90;;;;;;4867936;29;20202;-75
2021/08/09 04:44:16;;;;;;;10.50;9.70;;;12.10;99.90;;;;;;4858702;29;20245;-75
2021/08/09 04:46:43;;;;;;;10.07;9.37;;;12.10;99.90;;;;;;4873184;29;20694;-75
2021/08/09 04:49:10;;;;;;;10.00;9.30;;;12.20;99.90;;;;;;4866175;29;20629;-75
2021/08/09 04:51:39;;;;;;;9.80;9.00;;;12.30;99.90;;;;;;4868413;29;20206;-75
2021/08/09 04:54:05;;;;;;;9.43;8.83;;;12.30;99.90;;;;;;4875016;29;20202;-75
2021/08/09 04:56:33;;;;;;;9.60;8.90;;;12.40;99.90;;;;;;4881878;29;20203;-75
2021/08/09 04:59:00;;;;;;;9.63;9.00;;;12.50;99.90;;;;;;4861947;29;20718;-75
2021/08/09 05:01:27;;;;;;;9.80;9.10;;;12.50;99.90;;;;;;4869516;29;20199;-75
2021/08/09 05:03:54;;;;;;;10.03;9.33;;;12.60;99.90;;;;;;4869682;29;20210;-75
2021/08/09 05:06:24;;;;;;;9.40;8.70;;;12.70;99.90;;;;;;4869711;29;20194;-75
2021/08/09 05:08:54;;;;;;;6.80;6.30;;;12.80;99.90;;;;;;4873154;29;20235;-75
2021/08/09 05:11:20;;;;;;;7.60;7.10;;;12.80;99.90;;;;;;4866286;29;20222;-75
2021/08/09 05:13:47;;;;;;;5.17;4.70;;;12.80;99.90;;;;;;4890315;29;20629;-75
2021/08/09 05:16:14;;;;;;;4.07;3.67;;;12.80;99.90;;;;;;4873731;29;20296;-75
2021/08/09 05:18:41;;;;;;;4.23;3.83;;;12.90;99.90;;;;;;4868262;29;20669;-75
2021/08/09 05:21:08;;;;;;;4.80;4.40;;;13.00;99.90;;;;;;4870632;29;20215;-75
2021/08/09 05:23:34;;;;;;;5.37;4.50;;;13.00;99.90;;;;;;4871173;29;20594;-75
2021/08/09 05:26:03;;;;;;;4.77;4.37;;;13.10;99.90;;;;;;4867716;29;20574;-75
2021/08/09 05:28:30;;;;;;;4.17;3.83;;;13.20;99.90;;;;;;4862897;29;20227;-75
2021/08/09 05:30:57;;;;;;;4.80;3.80;;;13.30;99.90;;;;;;4864286;29;20214;-75
2021/08/09 05:33:26;;;;;;;4.17;3.50;;;13.50;99.90;;;;;;4865933;29;20208;-75
2021/08/09 05:35:53;;;;;;;5.30;4.80;;;13.70;99.90;;;;;;4887660;29;20300;-75
2021/08/09 05:38:20;;;;;;;5.60;5.10;;;13.90;99.90;;;;;;4869350;29;20656;-75
2021/08/09 05:40:47;;;;;;;5.53;5.13;;;14.00;99.90;;;;;;4891089;29;20215;-75
2021/08/09 05:43:15;;;;;;;7.07;6.50;;;14.20;99.90;;;;;;4876842;29;20208;-75
2021/08/09 05:45:42;;;;;;;8.93;8.43;;;14.40;99.90;;;;;;4869278;29;20604;-75
2021/08/09 05:48:09;;;;;;;5.67;4.77;;;14.50;99.90;;;;;;4874270;29;20207;-75
2021/08/09 05:50:36;;;;;;;4.80;4.40;;;14.90;99.90;;;;;;4861884;29;20210;-75
2021/08/09 05:53:07;;;;;;;4.40;3.60;;;15.30;99.90;;;;;;4873081;29;20228;-75
2021/08/09 05:55:35;;;;;;;9.30;8.70;;;15.70;99.90;;;;;;4884046;29;20672;-75
2021/08/09 05:58:06;;;;;;;9.80;9.20;;;15.90;99.90;;;;;;4869242;29;20243;-76
2021/08/09 06:00:35;;;;;;;9.60;8.90;;;15.90;99.90;;;;;;4893129;29;20205;-76
2021/08/09 06:03:05;;;;;;;9.73;8.93;;;15.90;99.90;;;;;;4872818;29;20209;-75
2021/08/09 06:05:42;;;;;;;9.80;9.10;;;15.90;99.90;;;;;;4867915;29;20226;-76
2021/08/09 06:08:11;;;;;;;4.23;3.80;;;15.90;99.90;;;;;;4888756;29;20652;-75
2021/08/09 06:10:39;;;;;;;7.50;7.00;;;15.90;99.90;;;;;;4871801;29;20229;-75
2021/08/09 06:13:08;;;;;;;3.07;2.50;;;15.90;99.90;;;;;;4872396;29;20194;-75
2021/08/09 06:15:36;;;;;;;3.23;2.73;;;15.90;99.90;;;;;;4879328;29;20289;-76
2021/08/09 06:18:04;;;;;;;3.30;3.00;;;15.80;99.90;;;;;;4870348;29;20205;-75
2021/08/09 06:20:32;;;;;;;3.20;2.90;;;15.80;99.90;;;;;;4887830;29;20700;-76
2021/08/09 06:22:59;;;;;;;2.73;2.53;;;15.90;99.90;;;;;;4868942;29;20203;-75
2021/08/09 06:25:26;;;;;;;8.00;7.47;;;16.00;99.90;;;;;;4891421;29;20228;-75
2021/08/09 06:27:54;;;;;;;9.67;8.97;;;16.10;99.90;;;;;;4876884;29;20209;-75
2021/08/09 06:30:21;;;;;;;9.30;8.70;;;16.20;99.90;;;;;;4867628;29;20289;-76
2021/08/09 06:32:49;;;;;;;8.50;7.90;;;16.40;99.90;;;;;;4870075;29;20196;-76
2021/08/09 06:35:16;;;;;;;8.30;7.80;;;16.40;99.90;;;;;;4890135;29;20286;-75
2021/08/09 06:37:43;;;;;;;8.03;7.53;;;16.40;99.90;;;;;;4871670;29;20215;-76
2021/08/09 06:40:11;;;;;;;8.07;7.53;;;16.50;99.90;;;;;;4874564;29;20690;-75
2021/08/09 06:42:40;;;;;;;8.20;7.60;;;16.50;99.90;;;;;;4869723;29;20241;-76
2021/08/09 06:45:12;;;;;;;8.70;8.10;;;16.70;99.90;;;;;;4876826;29;20261;-75
2021/08/09 06:47:39;;;;;;;7.83;7.33;;;17.00;99.90;;;;;;4877112;29;20207;-75
2021/08/09 06:50:09;;;;;;;7.73;7.13;;;17.20;99.90;;;;;;4888595;29;20226;-75
2021/08/09 06:52:36;;;;;;;6.33;5.93;;;17.40;99.90;;;;;;4878616;29;20201;-75
2021/08/09 06:55:03;;;;;;;7.40;6.80;;;17.50;99.90;;;;;;4886370;29;20228;-76
2021/08/09 06:57:34;;;;;;;7.00;6.40;;;17.80;99.90;;;;;;4870909;29;20300;-76
2021/08/09 07:00:03;;;;;;;6.23;5.83;;;18.10;99.90;;;;;;4869984;29;20276;-76
2021/08/09 07:02:30;;;;;;;6.60;6.20;;;18.50;99.90;;;;;;4871052;29;20206;-75
2021/08/09 07:04:57;;;;;;;10.37;6.47;;;18.80;99.90;;;;;;4894585;29;20585;-75
2021/08/09 07:07:25;;;;;;;7.60;7.00;;;19.00;99.90;;;;;;4868373;29;20218;-76
2021/08/09 07:09:52;;;;;;;7.70;7.20;;;19.20;99.90;;;;;;4873301;29;20231;-75
2021/08/09 07:12:20;;;;;;;8.00;7.50;;;19.30;99.90;;;;;;4866834;29;20198;-76
2021/08/09 07:14:47;;;;;;;6.30;5.70;;;19.50;99.90;;;;;;4870959;29;20333;-76
2021/08/09 07:17:14;;;;;;;6.40;6.00;;;19.80;99.90;;;;;;4871019;29;20200;-76
2021/08/09 07:19:41;;;;;;;6.10;5.60;;;19.90;99.90;;;;;;4869894;29;20227;-76
2021/08/09 07:22:08;;;;;;;6.80;5.40;;;20.10;99.90;;;;;;4869714;29;20289;-76
2021/08/09 07:24:38;;;;;;;7.13;6.63;;;20.30;99.90;;;;;;4876693;29;20221;-76
2021/08/09 07:27:05;;;;;;;5.00;4.60;;;20.70;99.90;;;;;;4867617;29;20225;-76
2021/08/09 07:29:33;;;;;;;6.53;6.13;;;20.90;99.90;;;;;;4876586;29;20221;-76
2021/08/09 07:32:01;;;;;;;6.70;6.20;;;21.20;99.90;;;;;;4867976;29;20254;-76
2021/08/09 07:34:28;;;;;;;5.17;4.77;;;21.30;99.90;;;;;;4874550;29;20193;-76
2021/08/09 07:36:55;;;;;;;7.30;6.70;;;21.60;99.90;;;;;;4867656;29;20206;-76
2021/08/09 07:39:23;;;;;;;8.50;7.90;;;21.90;99.90;;;;;;4872157;29;20277;-76
2021/08/09 07:41:51;;;;;;;8.60;8.00;;;22.20;99.90;;;;;;4869742;29;20201;-76
2021/08/09 07:44:18;;;;;;;8.07;7.37;;;22.50;99.90;;;;;;4870792;29;20229;-76
2021/08/09 07:46:45;;;;;;;9.40;8.77;;;22.70;99.90;;;;;;4876425;29;20261;-76
2021/08/09 07:49:13;;;;;;;9.47;8.80;;;23.00;99.90;;;;;;4872171;29;20332;-76
2021/08/09 07:51:40;;;;;;;8.20;7.60;;;23.10;99.90;;;;;;4868447;29;20590;-76
2021/08/09 07:54:07;;;;;;;9.30;8.70;;;23.30;99.90;;;;;;4876757;29;20204;-76
2021/08/09 07:56:34;;;;;;;9.77;9.07;;;23.60;99.90;;;;;;4870386;29;20209;-76
2021/08/09 07:59:03;;;;;;;9.17;8.40;;;23.50;99.90;;;;;;4872237;29;20269;-76
2021/08/09 08:01:31;;;;;;;7.03;6.33;;;23.80;99.90;;;;;;4868097;29;20209;-76
2021/08/09 08:03:58;;;;;;;6.10;5.30;;;24.00;99.90;;;;;;4868965;29;20196;-76
2021/08/09 08:06:25;;;;;;;5.60;5.20;;;24.00;99.90;;;;;;4870517;29;20247;-76
2021/08/09 08:08:54;;;;;;;5.80;5.40;;;24.30;99.90;;;;;;4869909;29;20318;-76
2021/08/09 08:11:21;;;;;;;3.77;2.33;;;24.30;99.90;;;;;;4871669;29;20217;-76
2021/08/09 08:13:48;;;;;;;5.33;4.83;;;24.60;99.90;;;;;;4886044;29;20205;-76
2021/08/09 08:16:17;;;;;;;8.40;7.80;;;24.80;99.90;;;;;;4876552;29;20668;-76
2021/08/09 08:18:45;;;;;;;8.60;8.00;;;25.00;99.90;;;;;;4868127;29;20225;-77
2021/08/09 08:21:12;;;;;;;8.70;8.10;;;24.80;99.90;;;;;;4862407;29;20212;-76
2021/08/09 08:23:39;;;;;;;6.83;6.30;;;24.90;99.90;;;;;;4891151;29;20675;-76
2021/08/09 08:26:07;;;;;;;8.13;7.60;;;25.00;99.90;;;;;;4870007;29;20217;-76
2021/08/09 08:28:36;;;;;;;8.10;7.50;;;25.00;99.90;;;;;;4870544;29;20213;-76
2021/08/09 08:31:02;;;;;;;7.20;6.70;;;25.10;99.90;;;;;;4870041;29;20212;-76
2021/08/09 08:33:31;;;;;;;8.00;7.50;;;25.30;99.90;;;;;;4870160;29;20204;-76
2021/08/09 08:35:59;;;;;;;4.13;3.93;;;25.70;99.90;;;;;;4872212;29;20611;-76
2021/08/09 08:38:26;;;;;;;2.50;2.30;;;25.90;99.90;;;;;;4866362;29;20225;-76
2021/08/09 08:40:53;;;;;;;3.23;2.93;;;26.10;99.90;;;;;;4874068;29;20210;-77
2021/08/09 08:43:24;;;;;;;6.47;6.07;;;26.30;99.90;;;;;;4863317;29;20214;-76
2021/08/09 08:45:57;;;;;;;7.70;7.20;;;26.50;99.90;;;;;;4892150;29;20231;-76
2021/08/09 08:48:26;;;;;;;8.60;8.00;;;26.60;99.90;;;;;;4869350;29;20233;-76
2021/08/09 08:50:56;;;;;;;7.60;7.20;;;26.70;99.90;;;;;;4862861;29;20210;-77
2021/08/09 08:53:23;;;;;;;7.60;7.20;;;27.00;99.90;;;;;;4888426;29;20289;-77
2021/08/09 08:55:50;;;;;;;6.57;5.63;;;27.00;99.90;;;;;;4869786;29;20204;-77
2021/08/09 08:58:17;;;;;;;2.30;2.10;;;27.10;99.90;;;;;;4870683;29;20221;-77
2021/08/09 09:00:44;;;;;;;6.10;5.70;;;27.10;99.90;;;;;;4870173;29;20237;-77
2021/08/09 09:03:18;;;;;;;7.10;6.70;;;27.10;99.90;;;;;;4876890;29;20209;-77
2021/08/09 09:05:59;;;;;;;3.27;2.67;;;27.00;99.90;;;;;;4878915;29;20216;-77
2021/08/09 09:08:39;;;;;;;7.00;6.50;;;27.00;99.90;;;;;;4870377;29;20610;-77
2021/08/09 09:11:07;;;;;;;7.40;6.90;;;27.30;99.90;;;;;;4867320;29;20211;-76
2021/08/09 09:13:33;;;;;;;7.40;6.90;;;27.40;99.90;;;;;;4889613;29;20622;-76
2021/08/09 09:16:03;;;;;;;7.47;7.07;;;27.40;99.90;;;;;;4867113;29;20664;-77
2021/08/09 09:18:49;;;;;;;7.47;6.97;;;27.70;99.90;;;;;;4870076;29;20228;-77
2021/08/09 09:21:41;;;;;;;8.30;7.80;;;27.70;99.90;;;;;;4868359;29;20281;-77
2021/08/09 09:24:11;;;;;;;8.40;7.90;;;27.70;99.90;;;;;;4872683;29;20193;-77
2021/08/09 09:26:40;;;;;;;8.50;8.00;;;27.90;99.90;;;;;;4868192;29;20699;-77
2021/08/09 09:29:09;;;;;;;8.57;7.97;;;27.90;99.90;;;;;;4869413;29;20284;-76
2021/08/09 09:31:36;;;;;;;8.53;8.03;;;27.90;99.90;;;;;;4874040;29;20209;-77
2021/08/09 09:34:08;;;;;;;8.80;8.10;;;28.00;99.90;;;;;;4865808;29;20294;-76
2021/08/09 09:36:50;;;;;;;9.17;8.57;;;28.10;99.90;;;;;;4886483;29;20217;-77
2021/08/09 09:39:34;;;;;;;9.10;8.50;;;27.80;97.50;;;;;;4869051;29;20289;-77
2021/08/09 09:42:04;;;;;;;8.73;7.97;;;28.00;99.90;;;;;;4882220;29;20221;-76
2021/08/09 09:44:32;;;;;;;8.93;8.13;;;28.00;98.60;;;;;;4892287;29;20205;-76
2021/08/09 09:47:25;;;;;;;7.77;7.17;;;28.10;97.50;;;;;;4868323;29;20241;-76
2021/08/09 09:49:53;;;;;;;7.67;7.17;;;28.10;99.60;;;;;;4873690;29;20245;-76
2021/08/09 09:52:36;;;;;;;8.90;8.30;;;28.40;99.60;;;;;;4869197;29;20287;-77
2021/08/09 09:55:07;;;;;;;8.00;7.50;;;28.40;99.00;;;;;;4864131;29;20573;-76
2021/08/09 09:57:34;;;;;;;8.00;7.40;;;28.50;98.20;;;;;;4869510;29;20648;-76
2021/08/09 10:00:01;;;;;;;7.80;7.30;;;28.30;98.90;;;;;;4868150;29;20249;-76
2021/08/09 10:02:29;;;;;;;8.33;7.80;;;28.30;99.30;;;;;;4870239;29;20202;-77
2021/08/09 10:04:56;;;;;;;8.90;8.30;;;28.30;98.30;;;;;;4868676;29;20202;-77
2021/08/09 10:07:25;;;;;;;8.80;8.30;;;28.20;98.00;;;;;;4869440;29;20678;-76
2021/08/09 10:09:55;;;;;;;5.60;5.20;;;28.20;98.20;;;;;;4869238;29;20225;-76
2021/08/09 10:12:25;;;;;;;10.43;9.73;;;28.20;98.70;;;;;;4868445;29;20202;-77
2021/08/09 10:14:53;;;;;;;7.03;6.53;;;28.20;97.60;;;;;;4872658;29;20237;-77
2021/08/09 10:17:20;;;;;;;8.27;7.77;;;28.20;98.40;;;;;;4886974;29;20288;-77
2021/08/09 10:19:49;;;;;;;5.67;5.17;;;28.00;98.40;;;;;;4871130;29;20236;-77
2021/08/09 10:22:19;;;;;;;5.23;4.83;;;27.70;99.80;;;;;;4869512;29;20206;-77
2021/08/09 10:24:46;;;;;;;8.10;7.50;;;27.20;98.70;;;;;;4862212;29;20221;-77
2021/08/09 10:27:14;;;;;;;7.17;6.73;;;26.80;99.10;;;;;;4869679;29;20197;-77
2021/08/09 10:30:11;;;;;;;7.40;6.90;;;26.40;99.90;;;;;;4867868;29;20278;-76
2021/08/09 10:32:45;;;;;;;7.50;6.90;;;26.20;99.90;;;;;;4867353;29;20272;-77
2021/08/09 10:36:00;;;;;;;7.23;6.80;;;26.20;99.90;;;;;;4868606;29;20245;-76
2021/08/09 10:38:38;;;;;;;6.67;6.30;;;26.60;99.90;;;;;;4873624;29;20293;-76
2021/08/09 10:41:28;;;;;;;7.13;6.63;;;26.60;99.90;;;;;;4882124;29;20288;-76
2021/08/09 10:44:24;;;;;;;7.03;6.53;;;26.90;99.70;;;;;;4862415;29;20629;-76
2021/08/09 10:46:53;;;;;;;6.80;6.33;;;27.00;99.10;;;;;;4847872;29;20250;-76
2021/08/09 10:49:58;;;;;;;8.27;7.67;;;27.00;99.60;;;;;;4868590;29;20641;-76
2021/08/09 10:52:40;;;;;;;7.57;6.97;;;26.80;99.40;;;;;;4876449;29;20580;-76
2021/08/09 10:55:46;;;;;;;5.13;4.67;;;26.90;98.40;;;;;;4870072;29;20197;-76
2021/08/09 10:58:53;;;;;;;7.30;6.73;;;26.20;99.70;;;;;;4872254;29;20208;-76
2021/08/09 11:01:23;;;;;;;7.07;6.67;;;26.10;99.90;;;;;;4866599;29;20221;-76
2021/08/09 11:04:23;;;;;;;6.80;6.40;;;26.10;99.90;;;;;;4870595;29;20213;-76
2021/08/09 11:06:54;;;;;;;7.03;6.60;;;25.90;98.60;;;;;;4814291;29;20219;-77
2021/08/09 11:09:44;;;;;;;7.10;6.60;;;25.30;99.70;;;;;;4816582;29;20774;-76
2021/08/09 11:12:13;;;;;;;7.40;6.90;;;24.80;99.90;;;;;;4850457;29;20312;-76
2021/08/09 11:15:14;;;;;;;7.23;6.73;;;25.10;99.90;;;;;;4871727;29;20209;-76
2021/08/09 11:17:50;;;;;;;6.63;6.23;;;25.40;99.90;;;;;;4872237;29;20659;-76
2021/08/09 11:20:20;;;;;;;7.23;6.73;;;25.60;99.90;;;;;;4872495;29;20225;-76
2021/08/09 11:22:49;;;;;;;7.23;6.83;;;25.80;99.90;;;;;;4892789;29;20209;-76
2021/08/09 11:25:27;;;;;;;6.80;6.40;;;25.70;99.90;;;;;;4868038;29;20213;-76
2021/08/09 11:28:05;;;;;;;7.43;6.83;;;25.60;99.40;;;;;;4876511;29;20206;-76
2021/08/09 11:30:44;;;;;;;7.40;6.87;;;25.80;99.90;;;;;;4869267;29;20445;-76
2021/08/09 11:33:30;;;;;;;7.20;6.73;;;26.00;99.90;;;;;;4872548;29;20251;-76
2021/08/09 11:35:59;;;;;;;7.07;6.67;;;25.90;99.70;;;;;;4871056;29;20198;-76
2021/08/09 11:38:28;;;;;;;8.73;8.03;;;25.80;99.90;;;;;;4871910;29;20285;-76
2021/08/09 11:40:59;;;;;;;7.60;7.00;;;25.50;99.70;;;;;;4869221;29;20722;-76
2021/08/09 11:43:28;;;;;;;7.57;7.07;;;25.50;99.90;;;;;;4872563;29;20283;-77
2021/08/09 11:45:56;;;;;;;7.90;7.40;;;25.50;99.90;;;;;;4868706;29;20221;-76
2021/08/09 11:48:30;;;;;;;7.33;6.90;;;25.40;99.90;;;;;;4872010;29;20223;-76
2021/08/09 11:51:02;;;;;;;7.80;7.30;;;25.50;99.90;;;;;;4874582;29;20204;-77
2021/08/09 11:53:29;;;;;;;4.43;4.00;;;25.60;99.90;;;;;;4871638;29;20209;-76
2021/08/09 11:56:06;;;;;;;8.60;7.80;;;25.70;99.40;;;;;;4871431;29;20206;-76
2021/08/09 11:58:33;;;;;;;7.90;7.30;;;25.50;99.50;;;;;;4869733;29;20232;-76
2021/08/09 12:01:00;;;;;;;7.50;7.00;;;25.20;98.40;;;;;;4885985;29;20227;-76
2021/08/09 12:03:28;;;;;;;9.97;9.33;;;24.90;98.20;;;;;;4871875;29;20201;-76
2021/08/09 12:05:57;;;;;;;6.73;6.30;;;24.90;99.90;;;;;;4872714;29;20229;-76
2021/08/09 12:08:24;;;;;;;7.93;7.43;;;25.10;99.90;;;;;;4889394;29;20672;-76
2021/08/09 12:10:51;;;;;;;8.10;7.50;;;25.30;99.90;;;;;;4871747;29;20304;-76
2021/08/09 12:13:24;;;;;;;7.70;7.00;;;25.10;99.40;;;;;;4871602;29;20698;-76
2021/08/09 12:16:10;;;;;;;7.27;6.80;;;25.10;99.20;;;;;;4876679;29;20201;-76
2021/08/09 12:18:40;;;;;;;7.57;7.00;;;25.30;99.90;;;;;;4867748;29;20244;-76
2021/08/09 12:21:11;;;;;;;7.23;6.73;;;25.40;99.90;;;;;;4874022;29;20209;-76
2021/08/09 12:23:55;;;;;;;7.23;6.70;;;25.30;99.90;;;;;;4888651;29;20214;-76
2021/08/09 12:26:28;;;;;;;7.00;6.50;;;25.30;99.40;;;;;;4869341;29;20233;-76
2021/08/09 12:28:56;;;;;;;6.70;6.30;;;25.40;99.10;;;;;;4873728;29;20221;-76
2021/08/09 12:31:45;;;;;;;6.83;6.43;;;25.50;99.90;;;;;;4873674;29;20236;-76
2021/08/09 12:34:14;;;;;;;7.20;6.70;;;25.50;99.90;;;;;;4873272;29;20236;-76
2021/08/09 12:36:43;;;;;;;6.80;6.40;;;25.50;99.90;;;;;;4870279;29;20226;-76
2021/08/09 12:39:11;;;;;;;6.80;6.40;;;25.50;99.90;;;;;;4875731;29;20224;-76
2021/08/09 12:41:38;;;;;;;7.40;6.90;;;25.60;99.90;;;;;;4870311;29;20252;-76
2021/08/09 12:44:07;;;;;;;7.10;6.70;;;25.60;99.70;;;;;;4868906;29;20253;-77
2021/08/09 12:46:34;;;;;;;7.10;6.70;;;25.50;99.70;;;;;;4869616;29;20230;-76
2021/08/09 12:49:02;;;;;;;7.33;6.93;;;25.40;98.20;;;;;;4888435;29;20230;-76
2021/08/09 12:51:30;;;;;;;7.53;6.97;;;25.30;99.30;;;;;;4868663;29;20254;-76
2021/08/09 12:53:57;;;;;;;7.10;6.60;;;25.10;99.50;;;;;;4873040;29;20239;-76
2021/08/09 12:56:24;;;;;;;6.60;6.20;;;25.10;99.90;;;;;;4873165;29;20204;-76
2021/08/09 12:58:50;;;;;;;6.60;6.20;;;25.10;99.80;;;;;;4869843;29;20706;-76
2021/08/09 13:01:17;;;;;;;6.50;5.90;;;25.10;99.90;;;;;;4869451;29;20206;-76